Canyon City, Oregon
Current Conditions -  °F | °C
As of 1:35 AM on Saturday 20 Dec 2014 (Local Time) from KGCD Reporting Station
Drizzle Drizzle  
Wind Chill: 38°   Ceiling: 7000
Heat Index: 38°   Visibility: 10mi
Dew Point: 33°   Wind: 0mph
Humidity: 83%   Direction: NA
Pressure: 29.96"   Gusts: NA
Location:  44.39°N, 118.95°W
Report Text: KGCD 200935Z AUTO 00000KT 10SM -DZ SCT060 OVC070 03/01 A2996 RMK AO2 T00330006
Loading
Personal Weather Stations






























Interactive Weather Map New forecast layout! Learn more

10-Day Weather Forecast

Advertisements
Track Severe Weather on mobile